createdAt,value
2018-09-13T00:01:15.974Z,20.34
2018-09-13T00:03:44.777Z,20.23
2018-09-13T00:06:15.320Z,19.53
2018-09-13T00:08:44.929Z,19.28
2018-09-13T00:11:13.903Z,19.20
2018-09-13T00:13:42.563Z,19.28
2018-09-13T00:16:11.261Z,19.57
2018-09-13T00:18:40.257Z,19.40
2018-09-13T00:21:09.009Z,19.32
2018-09-13T00:23:38.038Z,19.39
2018-09-13T00:26:07.329Z,19.36
2018-09-13T00:28:36.562Z,19.02
2018-09-13T00:31:05.381Z,19.14
2018-09-13T00:33:34.109Z,18.96
2018-09-13T00:36:03.049Z,19.06
2018-09-13T00:38:31.705Z,19.13
2018-09-13T00:41:00.341Z,19.15
2018-09-13T00:43:29.090Z,19.02
2018-09-13T00:45:58.117Z,18.96
2018-09-13T00:48:26.916Z,18.93
2018-09-13T00:50:55.641Z,18.94
2018-09-13T00:53:24.292Z,18.92
2018-09-13T00:55:53.058Z,18.97
2018-09-13T00:58:21.695Z,18.99
2018-09-13T01:00:50.694Z,18.98
2018-09-13T01:03:19.382Z,18.98
2018-09-13T01:05:48.193Z,19.03
2018-09-13T01:08:17.213Z,19.03
2018-09-13T01:10:45.855Z,18.97
2018-09-13T01:13:14.787Z,18.98
2018-09-13T01:15:43.405Z,19.00
2018-09-13T01:18:12.097Z,18.80
2018-09-13T01:20:41.158Z,18.79
2018-09-13T01:23:09.894Z,18.71
2018-09-13T01:25:38.586Z,18.74
2018-09-13T01:28:07.389Z,18.72
2018-09-13T01:30:36.960Z,18.69
2018-09-13T01:33:06.232Z,18.70
2018-09-13T01:35:35.793Z,18.61
2018-09-13T01:38:04.510Z,18.54
2018-09-13T01:40:33.171Z,18.50
2018-09-13T01:43:01.842Z,18.44
2018-09-13T01:45:30.563Z,18.32
2018-09-13T01:47:59.509Z,18.33
2018-09-13T01:50:28.921Z,18.36
2018-09-13T01:52:58.392Z,18.37
2018-09-13T01:55:27.825Z,18.34
2018-09-13T01:57:56.634Z,18.38
2018-09-13T02:00:25.451Z,18.41
2018-09-13T02:02:54.130Z,18.28
2018-09-13T02:05:23.376Z,18.20
2018-09-13T02:07:52.531Z,18.11
2018-09-13T02:10:22.126Z,18.16
2018-09-13T02:12:51.553Z,18.04
2018-09-13T02:15:20.809Z,17.98
2018-09-13T02:17:49.974Z,17.97
2018-09-13T02:20:19.574Z,18.01
2018-09-13T02:22:48.905Z,18.01
2018-09-13T02:25:18.499Z,17.94
2018-09-13T02:27:47.223Z,17.98
2018-09-13T02:30:15.894Z,17.96
2018-09-13T02:32:44.623Z,17.93
2018-09-13T02:35:13.530Z,17.94
2018-09-13T02:37:42.190Z,17.89
2018-09-13T02:40:10.954Z,17.91
2018-09-13T02:42:39.860Z,17.86
2018-09-13T02:45:08.915Z,17.78
2018-09-13T02:47:37.609Z,17.79
2018-09-13T02:50:06.309Z,17.80
2018-09-13T02:52:35.336Z,17.80
2018-09-13T02:55:04.159Z,17.74
2018-09-13T02:57:32.909Z,17.69
2018-09-13T03:00:02.138Z,17.67
2018-09-13T03:02:30.785Z,17.65
2018-09-13T03:04:59.437Z,17.69
2018-09-13T03:07:28.185Z,17.66
2018-09-13T03:09:57.014Z,17.68
2018-09-13T03:12:25.772Z,17.67
2018-09-13T03:14:54.554Z,17.66
2018-09-13T03:17:23.281Z,17.60
2018-09-13T03:19:51.959Z,17.60
2018-09-13T03:22:20.611Z,17.62
2018-09-13T03:24:49.526Z,17.60
2018-09-13T03:27:18.374Z,17.54
2018-09-13T03:29:47.146Z,17.54
2018-09-13T03:32:15.814Z,17.53
2018-09-13T03:34:44.450Z,17.53
2018-09-13T03:37:13.313Z,17.53
2018-09-13T03:39:42.110Z,17.59
2018-09-13T03:42:10.810Z,17.62
2018-09-13T03:44:39.428Z,17.66
2018-09-13T03:47:08.061Z,17.62
2018-09-13T03:49:36.783Z,17.58
2018-09-13T03:52:05.702Z,17.59
2018-09-13T03:54:34.488Z,17.51
2018-09-13T03:57:03.290Z,17.45
2018-09-13T03:59:32.081Z,17.41
2018-09-13T04:02:00.854Z,17.39
2018-09-13T04:04:29.521Z,17.42
2018-09-13T04:06:58.748Z,17.41
2018-09-13T04:09:28.121Z,17.40
2018-09-13T04:11:57.365Z,17.38
2018-09-13T04:14:26.749Z,17.33
2018-09-13T04:16:56.505Z,17.29
2018-09-13T04:19:30.759Z,17.32
2018-09-13T04:21:59.769Z,17.28
2018-09-13T04:24:29.191Z,17.27
2018-09-13T04:26:57.937Z,17.23
2018-09-13T04:29:26.773Z,17.19
2018-09-13T04:31:56.612Z,17.20
2018-09-13T04:34:26.420Z,17.25
2018-09-13T04:36:56.043Z,17.28
2018-09-13T04:39:25.276Z,17.32
2018-09-13T04:41:55.061Z,17.31
2018-09-13T04:44:24.095Z,17.20
2018-09-13T04:46:52.853Z,17.18
2018-09-13T04:49:21.885Z,17.25
2018-09-13T04:51:50.949Z,17.18
2018-09-13T04:54:19.615Z,17.18
2018-09-13T04:56:48.805Z,17.21
2018-09-13T04:59:17.493Z,17.09
2018-09-13T05:01:46.542Z,17.03
2018-09-13T05:04:15.437Z,16.96
2018-09-13T05:06:44.243Z,17.00
2018-09-13T05:09:14.574Z,17.10
2018-09-13T05:11:44.068Z,17.05
2018-09-13T05:14:13.282Z,17.05
2018-09-13T05:16:42.051Z,17.11
2018-09-13T05:19:10.777Z,17.13
2018-09-13T05:21:39.714Z,17.15
2018-09-13T05:24:08.617Z,17.30
2018-09-13T05:26:37.373Z,17.30
2018-09-13T05:29:06.207Z,17.36
2018-09-13T05:31:34.943Z,17.42
2018-09-13T05:34:03.671Z,17.48
2018-09-13T05:36:32.411Z,17.40
2018-09-13T05:39:01.238Z,17.34
2018-09-13T05:41:33.026Z,17.38
2018-09-13T05:44:01.738Z,17.41
2018-09-13T05:46:30.681Z,17.44
2018-09-13T05:48:59.766Z,17.46
2018-09-13T05:51:28.481Z,17.50
2018-09-13T05:53:57.252Z,17.46
2018-09-13T05:56:26.024Z,17.43
2018-09-13T05:58:55.253Z,17.40
2018-09-13T06:01:23.973Z,17.46
2018-09-13T06:03:52.699Z,17.51
2018-09-13T06:06:21.435Z,17.50
2018-09-13T06:08:50.698Z,17.63
2018-09-13T06:11:19.605Z,17.68
2018-09-13T06:13:48.493Z,17.69
2018-09-13T06:16:17.210Z,17.77
2018-09-13T06:18:45.915Z,17.87
2018-09-13T06:21:14.925Z,18.06
2018-09-13T06:23:43.627Z,18.13
2018-09-13T06:26:12.426Z,18.11
2018-09-13T06:28:41.333Z,18.09
2018-09-13T06:31:10.163Z,18.07
2018-09-13T06:33:38.896Z,18.17
2018-09-13T06:36:08.045Z,18.18
2018-09-13T06:38:36.741Z,18.21
2018-09-13T06:41:05.726Z,18.31
2018-09-13T06:43:34.459Z,18.38
2018-09-13T06:46:03.129Z,18.46
2018-09-13T06:48:31.874Z,18.43
2018-09-13T06:51:00.622Z,18.37
2018-09-13T06:53:29.418Z,18.26
2018-09-13T06:55:58.106Z,18.10
2018-09-13T06:58:26.764Z,18.25
2018-09-13T07:00:55.592Z,18.39
2018-09-13T07:03:24.365Z,18.52
2018-09-13T07:05:53.110Z,18.56
2018-09-13T07:08:21.847Z,18.77
2018-09-13T07:10:50.645Z,18.94
2018-09-13T07:13:19.624Z,19.03
2018-09-13T07:15:48.531Z,19.16
2018-09-13T07:18:17.293Z,19.23
2018-09-13T07:20:45.970Z,19.34
2018-09-13T07:23:14.608Z,19.52
2018-09-13T07:25:43.408Z,19.64
2018-09-13T07:28:12.122Z,19.29
2018-09-13T07:30:40.777Z,19.37
2018-09-13T07:33:09.780Z,19.32
2018-09-13T07:35:38.472Z,19.52
2018-09-13T07:38:07.427Z,19.72
2018-09-13T07:40:36.185Z,19.55
2018-09-13T07:43:05.008Z,19.82
2018-09-13T07:45:33.737Z,19.60
2018-09-13T07:48:02.413Z,19.73
2018-09-13T07:50:31.290Z,19.58
2018-09-13T07:53:00.098Z,19.59
2018-09-13T07:55:28.812Z,19.61
2018-09-13T07:57:57.774Z,19.48
2018-09-13T08:00:26.498Z,19.55
2018-09-13T08:02:55.210Z,19.56
2018-09-13T08:05:23.973Z,19.56
2018-09-13T08:07:52.795Z,19.65
2018-09-13T08:10:21.526Z,19.76
2018-09-13T08:12:50.229Z,19.79
2018-09-13T08:15:19.178Z,19.81
2018-09-13T08:17:47.926Z,19.95
2018-09-13T08:20:16.685Z,19.99
2018-09-13T08:22:45.361Z,20.08
2018-09-13T08:25:14.119Z,20.14
2018-09-13T08:27:43.000Z,20.25
2018-09-13T08:30:11.793Z,20.34
2018-09-13T08:32:40.490Z,20.41
2018-09-13T08:35:09.336Z,20.53
2018-09-13T08:37:38.083Z,20.56
2018-09-13T08:40:06.893Z,20.67
2018-09-13T08:42:35.565Z,20.70
2018-09-13T08:45:04.358Z,20.70
2018-09-13T08:47:33.200Z,20.71
2018-09-13T08:50:01.773Z,20.63
2018-09-13T08:52:30.487Z,20.44
2018-09-13T08:54:59.196Z,20.55
2018-09-13T08:57:27.966Z,20.63
2018-09-13T08:59:56.726Z,20.55
2018-09-13T09:02:25.402Z,20.65
2018-09-13T09:04:54.092Z,20.41
2018-09-13T09:07:22.792Z,20.52
2018-09-13T09:09:51.466Z,20.37
2018-09-13T09:12:20.195Z,20.42
2018-09-13T09:14:49.201Z,20.38
2018-09-13T09:17:18.090Z,20.22
2018-09-13T09:19:46.781Z,20.23
2018-09-13T09:22:15.527Z,20.22
2018-09-13T09:24:44.220Z,20.47
2018-09-13T09:27:13.025Z,20.40
2018-09-13T09:29:42.201Z,20.41
2018-09-13T09:32:10.904Z,20.67
2018-09-13T09:34:39.608Z,20.62
2018-09-13T09:37:08.424Z,20.77
2018-09-13T09:39:37.128Z,20.48
2018-09-13T09:42:05.822Z,20.39
2018-09-13T09:44:34.514Z,20.47
2018-09-13T09:47:03.214Z,20.19
2018-09-13T09:49:31.882Z,20.27
2018-09-13T09:52:00.789Z,20.14
2018-09-13T09:54:29.664Z,20.38
2018-09-13T09:56:58.894Z,20.42
2018-09-13T09:59:27.901Z,20.34
2018-09-13T10:02:01.863Z,20.30
2018-09-13T10:04:30.547Z,20.00
2018-09-13T10:06:59.425Z,19.92
2018-09-13T10:09:28.120Z,20.02
2018-09-13T10:11:56.886Z,20.31
2018-09-13T10:14:25.599Z,20.17
2018-09-13T10:16:59.447Z,20.50
2018-09-13T10:19:33.519Z,20.54
2018-09-13T10:22:07.382Z,20.86
2018-09-13T10:24:41.409Z,21.16
2018-09-13T10:27:15.398Z,21.24
2018-09-13T10:29:49.493Z,21.12
2018-09-13T10:32:23.350Z,21.21
2018-09-13T10:34:57.287Z,21.36
2018-09-13T10:37:31.394Z,21.15
2018-09-13T10:40:05.381Z,21.27
2018-09-13T10:42:39.341Z,21.42
2018-09-13T10:45:13.486Z,21.20
2018-09-13T10:47:56.482Z,21.13
2018-09-13T10:50:35.510Z,21.25
2018-09-13T10:53:39.210Z,21.47
2018-09-13T10:56:08.565Z,21.52
2018-09-13T10:58:37.293Z,21.29
2018-09-13T11:01:06.357Z,21.58
2018-09-13T11:03:35.108Z,21.37
2018-09-13T11:06:03.889Z,21.59
2018-09-13T11:08:32.663Z,21.77
2018-09-13T11:11:01.589Z,21.84
2018-09-13T11:13:38.232Z,21.85
2018-09-13T11:16:06.917Z,21.84
2018-09-13T11:18:35.780Z,22.19
2018-09-13T11:21:04.478Z,22.33
2018-09-13T11:23:33.125Z,22.33
2018-09-13T11:26:01.837Z,22.21
2018-09-13T11:28:31.143Z,22.39
2018-09-13T11:31:04.399Z,22.41
2018-09-13T11:33:34.549Z,22.02
2018-09-13T11:36:03.621Z,21.99
2018-09-13T11:38:32.472Z,21.98
2018-09-13T11:41:01.336Z,22.10
2018-09-13T11:43:30.182Z,22.27
2018-09-13T11:45:58.973Z,22.29
2018-09-13T11:48:27.970Z,22.37
2018-09-13T11:50:56.770Z,22.51
2018-09-13T11:53:26.021Z,22.70
2018-09-13T11:55:54.725Z,23.06
2018-09-13T11:58:23.813Z,23.31
2018-09-13T12:00:53.067Z,23.28
2018-09-13T12:03:21.821Z,23.77
2018-09-13T12:05:51.063Z,23.62
2018-09-13T12:08:20.291Z,23.80
2018-09-13T12:10:48.977Z,23.18
2018-09-13T12:13:17.745Z,23.17
2018-09-13T12:15:46.485Z,22.79
2018-09-13T12:18:15.199Z,22.91
2018-09-13T12:20:44.412Z,22.65
2018-09-13T12:23:13.528Z,22.90
2018-09-13T12:25:43.046Z,22.88
2018-09-13T12:28:11.730Z,22.86
2018-09-13T12:30:40.727Z,23.06
2018-09-13T12:33:09.454Z,23.03
2018-09-13T12:35:38.370Z,23.24
2018-09-13T12:38:07.820Z,23.30
2018-09-13T12:40:36.787Z,23.39
2018-09-13T12:43:05.554Z,23.54
2018-09-13T12:45:34.528Z,24.33
2018-09-13T12:48:03.333Z,24.73
2018-09-13T12:50:32.052Z,24.70
2018-09-13T12:53:00.859Z,25.39
2018-09-13T12:55:33.831Z,25.63
2018-09-13T12:58:02.748Z,25.71
2018-09-13T13:00:31.678Z,25.75
2018-09-13T13:03:00.314Z,25.51
2018-09-13T13:05:28.978Z,26.36
2018-09-13T13:07:58.033Z,26.59
2018-09-13T13:10:27.352Z,27.09
2018-09-13T13:12:56.036Z,26.43
2018-09-13T13:15:24.758Z,26.48
2018-09-13T13:17:53.490Z,26.47
2018-09-13T13:20:22.404Z,25.55
2018-09-13T13:22:51.273Z,24.84
2018-09-13T13:25:20.257Z,24.73
2018-09-13T13:27:49.106Z,24.36
2018-09-13T13:30:18.055Z,24.19
2018-09-13T13:32:46.773Z,23.99
2018-09-13T13:35:15.659Z,24.00
2018-09-13T13:37:44.383Z,24.36
2018-09-13T13:40:13.196Z,24.64
2018-09-13T13:42:42.002Z,24.89
2018-09-13T13:45:10.882Z,24.95
2018-09-13T13:47:39.724Z,25.09
2018-09-13T13:50:08.664Z,25.20
2018-09-13T13:52:37.463Z,25.56
2018-09-13T13:55:06.325Z,25.42
2018-09-13T13:57:35.042Z,25.47
2018-09-13T14:00:03.887Z,24.93
2018-09-13T14:02:32.626Z,24.73
2018-09-13T14:05:01.414Z,24.50
2018-09-13T14:07:30.387Z,24.55
2018-09-13T14:09:59.145Z,24.64
2018-09-13T14:12:27.881Z,24.62
2018-09-13T14:14:56.776Z,24.70
2018-09-13T14:17:25.564Z,24.87
2018-09-13T14:19:54.223Z,24.53
2018-09-13T14:22:22.977Z,24.49
2018-09-13T14:24:51.671Z,24.23
2018-09-13T14:27:20.341Z,24.17
2018-09-13T14:29:49.136Z,24.31
2018-09-13T14:32:17.801Z,24.20
2018-09-13T14:34:46.517Z,24.20
2018-09-13T14:37:15.247Z,24.09
2018-09-13T14:39:44.060Z,24.20
2018-09-13T14:42:13.009Z,24.21
2018-09-13T14:44:41.666Z,24.17
2018-09-13T14:47:10.524Z,24.27
2018-09-13T14:49:39.186Z,24.26
2018-09-13T14:52:08.193Z,24.39
2018-09-13T14:54:36.871Z,24.26
2018-09-13T14:57:05.609Z,24.06
2018-09-13T14:59:34.267Z,24.14
2018-09-13T15:02:03.019Z,24.10
2018-09-13T15:04:32.391Z,24.19
2018-09-13T15:07:01.393Z,24.33
2018-09-13T15:09:30.340Z,24.41
2018-09-13T15:11:59.058Z,24.63
2018-09-13T15:14:29.310Z,24.58
2018-09-13T15:17:00.045Z,24.46
2018-09-13T15:19:29.877Z,24.32
2018-09-13T15:21:58.554Z,24.12
2018-09-13T15:24:27.455Z,24.22
2018-09-13T15:26:56.206Z,24.39
2018-09-13T15:29:25.186Z,24.54
2018-09-13T15:31:54.041Z,24.57
2018-09-13T15:34:22.751Z,24.62
2018-09-13T15:36:51.409Z,24.50
2018-09-13T15:39:20.209Z,24.50
2018-09-13T15:41:48.957Z,24.34
2018-09-13T15:44:17.865Z,24.09
2018-09-13T15:46:46.628Z,24.06
2018-09-13T15:49:15.317Z,24.07
2018-09-13T15:51:44.085Z,24.09
2018-09-13T15:54:12.724Z,23.98
2018-09-13T15:56:41.489Z,23.92
2018-09-13T15:59:10.226Z,23.68
2018-09-13T16:01:39.221Z,23.71
2018-09-13T16:04:08.006Z,23.58
2018-09-13T16:06:36.743Z,23.56
2018-09-13T16:09:08.051Z,23.58
2018-09-13T16:11:37.131Z,23.63
2018-09-13T16:14:05.913Z,23.69
2018-09-13T16:16:35.131Z,23.57
2018-09-13T16:19:03.981Z,23.34
2018-09-13T16:21:32.793Z,23.43
2018-09-13T16:24:01.470Z,23.40
2018-09-13T16:26:30.267Z,23.36
2018-09-13T16:28:59.277Z,23.36
2018-09-13T16:31:27.994Z,23.27
2018-09-13T16:33:56.790Z,23.22
2018-09-13T16:36:30.740Z,23.16
2018-09-13T16:39:05.351Z,23.11
2018-09-13T16:41:40.881Z,22.95
2018-09-13T16:44:14.221Z,22.95
2018-09-13T16:46:48.053Z,22.86
2018-09-13T16:49:16.878Z,22.81
2018-09-13T16:51:45.625Z,22.80
2018-09-13T16:54:14.413Z,22.71
2018-09-13T16:56:43.294Z,22.68
2018-09-13T16:59:11.990Z,22.65
2018-09-13T17:01:40.899Z,22.62
2018-09-13T17:04:09.601Z,22.56
2018-09-13T17:06:38.505Z,22.50
2018-09-13T17:09:09.643Z,22.46
2018-09-13T17:11:38.362Z,22.46
2018-09-13T17:14:07.170Z,22.43
2018-09-13T17:16:35.874Z,22.33
2018-09-13T17:19:04.675Z,22.35
2018-09-13T17:21:33.401Z,22.34
2018-09-13T17:24:02.130Z,22.31
2018-09-13T17:26:31.531Z,22.28
2018-09-13T17:29:00.817Z,22.23
2018-09-13T17:31:29.685Z,22.25
2018-09-13T17:33:59.164Z,22.23
2018-09-13T17:36:28.422Z,22.17
2018-09-13T17:38:57.066Z,22.23
2018-09-13T17:41:25.787Z,22.17
2018-09-13T17:43:54.749Z,22.14
2018-09-13T17:46:23.687Z,22.15
2018-09-13T17:48:52.362Z,22.10
2018-09-13T17:51:21.037Z,22.17
2018-09-13T17:53:49.955Z,22.11
2018-09-13T17:56:18.818Z,22.10
2018-09-13T17:58:47.854Z,22.10
2018-09-13T18:01:16.533Z,22.03
2018-09-13T18:03:45.544Z,22.02
2018-09-13T18:06:14.314Z,21.95
2018-09-13T18:08:43.070Z,21.97
2018-09-13T18:11:12.057Z,22.05
2018-09-13T18:13:41.093Z,22.02
2018-09-13T18:16:09.857Z,22.06
2018-09-13T18:18:38.883Z,22.01
2018-09-13T18:21:07.842Z,21.98
2018-09-13T18:23:36.599Z,21.96
2018-09-13T18:26:05.306Z,21.94
2018-09-13T18:28:34.230Z,21.92
2018-09-13T18:31:03.723Z,21.91
2018-09-13T18:33:32.396Z,21.89
2018-09-13T18:36:01.218Z,21.89
2018-09-13T18:38:29.930Z,21.82
2018-09-13T18:40:58.890Z,21.77
2018-09-13T18:43:27.619Z,21.81
2018-09-13T18:45:56.406Z,21.76
2018-09-13T18:48:25.115Z,21.69
2018-09-13T18:50:53.827Z,21.69
2018-09-13T18:53:22.514Z,21.60
2018-09-13T18:55:51.262Z,21.61
2018-09-13T18:58:20.045Z,21.60
2018-09-13T19:00:49.174Z,21.57
2018-09-13T19:03:17.861Z,21.46
2018-09-13T19:05:46.690Z,21.43
2018-09-13T19:08:15.584Z,21.37
2018-09-13T19:10:44.265Z,21.40
2018-09-13T19:13:13.055Z,21.37
2018-09-13T19:15:42.100Z,21.30
2018-09-13T19:18:10.812Z,21.23
2018-09-13T19:20:39.493Z,21.20
2018-09-13T19:23:08.205Z,21.14
2018-09-13T19:25:36.950Z,21.20
2018-09-13T19:28:05.885Z,21.12
2018-09-13T19:30:34.535Z,21.12
2018-09-13T19:33:03.303Z,21.09
2018-09-13T19:35:32.549Z,21.05
2018-09-13T19:38:01.210Z,21.15
2018-09-13T19:40:29.962Z,21.13
2018-09-13T19:42:58.699Z,21.04
2018-09-13T19:45:27.366Z,21.01
2018-09-13T19:47:56.196Z,20.99
2018-09-13T19:50:24.977Z,20.88
2018-09-13T19:52:53.799Z,20.87
2018-09-13T19:55:22.546Z,20.79
2018-09-13T19:57:51.227Z,20.72
2018-09-13T20:00:19.931Z,20.71
2018-09-13T20:02:48.688Z,20.58
2018-09-13T20:05:17.539Z,20.46
2018-09-13T20:07:46.336Z,20.45
2018-09-13T20:10:15.090Z,20.42
2018-09-13T20:12:43.765Z,20.33
2018-09-13T20:15:12.534Z,20.26
2018-09-13T20:17:41.367Z,20.07
2018-09-13T20:20:10.037Z,19.94
2018-09-13T20:22:38.791Z,19.85
2018-09-13T20:25:07.903Z,19.89
2018-09-13T20:27:36.928Z,19.86
2018-09-13T20:30:07.063Z,19.82
2018-09-13T20:32:35.705Z,19.91
2018-09-13T20:35:04.506Z,19.78
2018-09-13T20:37:33.249Z,19.76
2018-09-13T20:40:02.083Z,19.70
2018-09-13T20:42:31.291Z,19.64
2018-09-13T20:44:59.965Z,19.62
2018-09-13T20:47:28.766Z,19.42
2018-09-13T20:49:57.552Z,19.43
2018-09-13T20:52:26.301Z,19.43
2018-09-13T20:54:55.018Z,19.48
2018-09-13T20:57:23.917Z,19.43
2018-09-13T20:59:52.913Z,19.38
2018-09-13T21:02:21.654Z,19.23
2018-09-13T21:04:50.366Z,19.24
2018-09-13T21:07:19.230Z,19.26
2018-09-13T21:09:47.930Z,19.25
2018-09-13T21:12:16.610Z,19.21
2018-09-13T21:14:45.319Z,19.14
2018-09-13T21:17:14.018Z,19.16
2018-09-13T21:19:43.039Z,19.05
2018-09-13T21:22:12.193Z,18.98
2018-09-13T21:24:40.838Z,18.88
2018-09-13T21:27:09.662Z,18.88
2018-09-13T21:29:38.372Z,18.73
2018-09-13T21:32:07.082Z,18.90
2018-09-13T21:34:35.749Z,18.85
2018-09-13T21:37:04.432Z,18.71
2018-09-13T21:39:33.141Z,18.68
2018-09-13T21:42:01.862Z,18.61
2018-09-13T21:44:30.800Z,18.66
2018-09-13T21:46:59.473Z,18.55
2018-09-13T21:49:28.161Z,18.61
2018-09-13T21:51:56.883Z,18.64
2018-09-13T21:54:25.526Z,18.67
2018-09-13T21:56:54.252Z,18.56
2018-09-13T21:59:22.893Z,18.53
2018-09-13T22:01:51.618Z,18.57
2018-09-13T22:04:20.306Z,18.49
2018-09-13T22:06:49.097Z,18.51
2018-09-13T22:09:17.906Z,18.43
2018-09-13T22:11:46.668Z,18.47
2018-09-13T22:14:15.341Z,18.42
2018-09-13T22:16:44.062Z,18.34
2018-09-13T22:19:12.911Z,18.31
2018-09-13T22:21:41.855Z,18.36
2018-09-13T22:24:10.513Z,18.30
2018-09-13T22:26:39.192Z,18.29
2018-09-13T22:29:08.064Z,18.31
2018-09-13T22:31:36.682Z,18.23
2018-09-13T22:34:07.511Z,18.25
2018-09-13T22:36:36.934Z,18.18
2018-09-13T22:39:10.110Z,18.15
2018-09-13T22:41:39.302Z,18.25
2018-09-13T22:44:07.969Z,18.26
2018-09-13T22:46:36.631Z,18.19
2018-09-13T22:49:05.413Z,18.10
2018-09-13T22:51:34.180Z,18.05
2018-09-13T22:54:03.301Z,18.03
2018-09-13T22:56:32.249Z,18.14
2018-09-13T22:59:01.081Z,18.20
2018-09-13T23:01:30.068Z,18.12
2018-09-13T23:03:59.051Z,18.13
2018-09-13T23:06:27.833Z,18.14
2018-09-13T23:08:56.961Z,18.04
2018-09-13T23:11:25.729Z,18.06
2018-09-13T23:13:54.622Z,17.93
2018-09-13T23:16:23.433Z,17.93
2018-09-13T23:18:52.305Z,17.98
2018-09-13T23:21:21.143Z,17.96
2018-09-13T23:23:49.852Z,18.12
2018-09-13T23:26:18.485Z,18.05
2018-09-13T23:28:47.557Z,18.06
2018-09-13T23:31:16.298Z,18.05
2018-09-13T23:33:45.082Z,18.09
2018-09-13T23:36:13.767Z,18.16
2018-09-13T23:38:42.466Z,18.09
2018-09-13T23:41:11.406Z,18.23
2018-09-13T23:43:40.481Z,18.14
2018-09-13T23:46:09.172Z,18.09
2018-09-13T23:48:38.079Z,18.17
2018-09-13T23:51:06.761Z,17.90
2018-09-13T23:53:35.652Z,17.94
2018-09-13T23:56:04.823Z,17.82
2018-09-13T23:58:33.651Z,17.78
